createdAt,value
2018-05-10T00:01:21.815Z,96515.23
2018-05-10T00:03:49.350Z,96507.31
2018-05-10T00:06:17.287Z,96514.43
2018-05-10T00:08:44.877Z,96512.23
2018-05-10T00:11:13.030Z,96525.81
2018-05-10T00:13:40.530Z,96514.73
2018-05-10T00:16:08.068Z,96521.04
2018-05-10T00:18:35.582Z,96518.57
2018-05-10T00:21:03.246Z,96516.07
2018-05-10T00:23:30.743Z,96510.45
2018-05-10T00:25:58.270Z,96510.81
2018-05-10T00:28:25.842Z,96516.75
2018-05-10T00:30:53.359Z,96509.82
2018-05-10T00:33:20.937Z,96510.81
2018-05-10T00:35:48.483Z,96509.59
2018-05-10T00:38:16.798Z,96510.02
2018-05-10T00:40:44.322Z,96507.49
2018-05-10T00:43:11.863Z,96516.69
2018-05-10T00:45:39.455Z,96514.88
2018-05-10T00:48:06.994Z,96525.48
2018-05-10T00:50:34.574Z,96515.28
2018-05-10T00:53:02.159Z,96529.41
2018-05-10T00:55:29.706Z,96521.33
2018-05-10T00:57:57.250Z,96520.00
2018-05-10T01:00:24.796Z,96521.16
2018-05-10T01:02:52.490Z,96520.13
2018-05-10T01:05:20.006Z,96517.26
2018-05-10T01:07:47.517Z,96522.35
2018-05-10T01:10:15.079Z,96515.54
2018-05-10T01:12:42.610Z,96525.57
2018-05-10T01:15:10.133Z,96526.22
2018-05-10T01:17:37.701Z,96529.50
2018-05-10T01:20:05.237Z,96527.95
2018-05-10T01:22:32.774Z,96510.95
2018-05-10T01:25:00.301Z,96522.39
2018-05-10T01:27:27.854Z,96524.22
2018-05-10T01:29:55.453Z,96528.31
2018-05-10T01:32:22.983Z,96535.55
2018-05-10T01:35:02.322Z,96531.44
2018-05-10T01:37:29.880Z,96534.47
2018-05-10T01:39:57.413Z,96537.40
2018-05-10T01:42:24.979Z,96533.27
2018-05-10T01:44:52.514Z,96534.00
2018-05-10T01:47:20.034Z,96533.13
2018-05-10T01:49:47.594Z,96529.12
2018-05-10T01:52:15.122Z,96535.34
2018-05-10T01:54:42.732Z,96536.52
2018-05-10T01:57:10.303Z,96538.53
2018-05-10T01:59:37.865Z,96539.34
2018-05-10T02:02:05.459Z,96544.02
2018-05-10T02:04:33.051Z,96543.62
2018-05-10T02:07:00.614Z,96542.28
2018-05-10T02:09:28.252Z,96542.82
2018-05-10T02:11:56.117Z,96542.30
2018-05-10T02:14:23.642Z,96543.79
2018-05-10T02:16:51.180Z,96546.89
2018-05-10T02:19:18.730Z,96552.47
2018-05-10T02:21:46.290Z,96548.59
2018-05-10T02:24:13.865Z,96552.81
2018-05-10T02:26:41.563Z,96549.95
2018-05-10T02:29:09.095Z,96551.36
2018-05-10T02:31:36.650Z,96547.33
2018-05-10T02:34:04.233Z,96550.09
2018-05-10T02:36:31.766Z,96551.58
2018-05-10T02:38:59.281Z,96550.45
2018-05-10T02:41:26.889Z,96550.63
2018-05-10T02:43:54.453Z,96549.13
2018-05-10T02:46:22.014Z,96550.59
2018-05-10T02:48:49.548Z,96552.47
2018-05-10T02:51:17.073Z,96549.80
2018-05-10T02:53:44.621Z,96556.00
2018-05-10T02:56:12.192Z,96554.97
2018-05-10T02:58:39.770Z,96553.48
2018-05-10T03:01:07.419Z,96549.30
2018-05-10T03:03:34.958Z,96550.94
2018-05-10T03:06:02.562Z,96549.70
2018-05-10T03:08:30.111Z,96549.78
2018-05-10T03:10:57.682Z,96547.33
2018-05-10T03:13:25.275Z,96551.23
2018-05-10T03:15:52.802Z,96550.25
2018-05-10T03:21:00.470Z,96564.68
2018-05-10T03:23:28.031Z,96566.53
2018-05-10T03:25:55.574Z,96567.97
2018-05-10T03:28:23.130Z,96572.27
2018-05-10T03:30:50.653Z,96561.14
2018-05-10T03:33:18.348Z,96564.31
2018-05-10T03:35:45.839Z,96539.59
2018-05-10T03:38:13.414Z,96565.68
2018-05-10T03:40:40.994Z,96570.96
2018-05-10T03:43:08.590Z,96569.45
2018-05-10T03:45:36.105Z,96578.17
2018-05-10T03:48:03.693Z,96575.13
2018-05-10T03:50:31.243Z,96581.61
2018-05-10T03:52:58.786Z,96583.73
2018-05-10T03:55:26.326Z,96583.38
2018-05-10T03:57:53.933Z,96577.78
2018-05-10T04:00:21.450Z,96585.55
2018-05-10T04:06:15.674Z,96583.71
2018-05-10T04:08:54.982Z,96592.34
2018-05-10T04:11:23.178Z,96588.05
2018-05-10T04:13:50.709Z,96595.23
2018-05-10T04:16:18.247Z,96590.62
2018-05-10T04:18:45.835Z,96586.33
2018-05-10T04:21:14.257Z,96591.11
2018-05-10T04:23:41.761Z,96584.36
2018-05-10T04:26:09.327Z,96590.48
2018-05-10T04:28:36.857Z,96587.88
2018-05-10T04:31:04.425Z,96592.14
2018-05-10T04:33:31.946Z,96598.13
2018-05-10T04:35:59.532Z,96588.11
2018-05-10T04:38:27.033Z,96594.05
2018-05-10T04:40:54.627Z,96590.66
2018-05-10T04:43:22.153Z,96588.52
2018-05-10T04:45:49.713Z,96587.92
2018-05-10T04:48:17.257Z,96588.43
2018-05-10T04:50:44.842Z,96584.34
2018-05-10T04:53:12.360Z,96581.66
2018-05-10T04:55:39.933Z,96576.59
2018-05-10T04:58:07.485Z,96560.42
2018-05-10T05:00:35.035Z,96575.48
2018-05-10T05:03:02.604Z,96588.09
2018-05-10T05:05:30.119Z,96583.81
2018-05-10T05:07:57.669Z,96583.17
2018-05-10T05:10:25.182Z,96588.86
2018-05-10T05:12:53.681Z,96582.63
2018-05-10T05:15:21.197Z,96577.28
2018-05-10T05:17:48.748Z,96580.89
2018-05-10T05:20:16.254Z,96590.61
2018-05-10T05:22:43.794Z,96584.84
2018-05-10T05:25:11.350Z,96588.09
2018-05-10T05:27:38.957Z,96579.52
2018-05-10T05:30:06.461Z,96590.19
2018-05-10T05:32:34.041Z,96591.30
2018-05-10T05:35:01.565Z,96585.79
2018-05-10T05:37:29.116Z,96579.70
2018-05-10T05:39:56.646Z,96586.09
2018-05-10T05:42:24.169Z,96586.95
2018-05-10T05:44:51.707Z,96588.39
2018-05-10T05:47:19.322Z,96590.91
2018-05-10T05:49:46.843Z,96592.80
2018-05-10T05:52:14.463Z,96594.34
2018-05-10T05:54:42.001Z,96594.42
2018-05-10T05:57:09.529Z,96595.78
2018-05-10T05:59:37.054Z,96588.97
2018-05-10T06:02:04.562Z,96590.69
2018-05-10T06:04:32.127Z,96595.44
2018-05-10T06:06:59.658Z,96593.20
2018-05-10T06:09:27.180Z,96597.58
2018-05-10T06:11:54.740Z,96602.37
2018-05-10T06:14:22.249Z,96601.94
2018-05-10T06:16:49.755Z,96598.31
2018-05-10T06:19:17.315Z,96598.19
2018-05-10T06:21:44.806Z,96602.61
2018-05-10T06:24:12.370Z,96597.31
2018-05-10T06:26:39.904Z,96607.73
2018-05-10T06:29:07.442Z,96613.40
2018-05-10T06:31:34.997Z,96615.11
2018-05-10T06:34:02.594Z,96625.33
2018-05-10T06:36:30.108Z,96623.07
2018-05-10T06:38:57.655Z,96629.02
2018-05-10T06:41:25.158Z,96627.66
2018-05-10T06:43:52.699Z,96627.81
2018-05-10T06:46:20.195Z,96631.43
2018-05-10T06:48:47.923Z,96633.75
2018-05-10T06:51:15.446Z,96634.89
2018-05-10T06:53:42.950Z,96640.52
2018-05-10T06:56:10.484Z,96637.61
2018-05-10T06:58:37.964Z,96643.88
2018-05-10T07:01:05.476Z,96643.98
2018-05-10T07:03:32.994Z,96647.53
2018-05-10T07:06:00.545Z,96655.77
2018-05-10T07:08:28.057Z,96650.30
2018-05-10T07:10:55.664Z,96653.63
2018-05-10T07:13:23.200Z,96654.13
2018-05-10T07:15:50.764Z,96657.30
2018-05-10T07:18:18.287Z,96663.55
2018-05-10T07:20:45.841Z,96652.08
2018-05-10T07:23:13.358Z,96651.22
2018-05-10T07:25:40.886Z,96654.28
2018-05-10T07:28:08.459Z,96654.74
2018-05-10T07:30:35.980Z,96654.34
2018-05-10T07:33:03.534Z,96653.92
2018-05-10T07:35:31.103Z,96659.16
2018-05-10T07:37:58.633Z,96668.36
2018-05-10T07:40:26.171Z,96668.67
2018-05-10T07:42:53.710Z,96669.01
2018-05-10T07:45:22.198Z,96673.00
2018-05-10T07:47:50.051Z,96677.59
2018-05-10T07:50:17.595Z,96676.05
2018-05-10T07:52:45.190Z,96672.44
2018-05-10T07:55:12.723Z,96675.19
2018-05-10T07:57:40.243Z,96671.11
2018-05-10T08:00:07.827Z,96673.55
2018-05-10T08:02:35.454Z,96675.39
2018-05-10T08:05:02.942Z,96682.47
2018-05-10T08:07:30.526Z,96520.84
2018-05-10T08:09:58.018Z,96685.48
2018-05-10T08:12:25.549Z,96693.05
2018-05-10T08:14:53.055Z,96694.25
2018-05-10T08:17:20.723Z,96691.48
2018-05-10T08:19:48.178Z,96694.91
2018-05-10T08:22:15.717Z,96691.88
2018-05-10T08:24:43.240Z,96692.78
2018-05-10T08:27:10.801Z,96702.03
2018-05-10T08:29:38.507Z,96705.23
2018-05-10T08:32:06.046Z,96707.67
2018-05-10T08:34:33.601Z,96688.77
2018-05-10T08:37:01.159Z,96708.47
2018-05-10T08:39:28.718Z,96709.05
2018-05-10T08:41:56.273Z,96704.84
2018-05-10T08:44:23.818Z,96707.41
2018-05-10T08:46:51.350Z,96708.65
2018-05-10T08:49:18.926Z,96710.72
2018-05-10T08:51:46.548Z,96708.62
2018-05-10T08:54:14.003Z,96715.52
2018-05-10T08:56:41.533Z,96718.95
2018-05-10T08:59:09.090Z,96714.41
2018-05-10T09:01:36.595Z,96712.61
2018-05-10T09:04:04.124Z,96711.93
2018-05-10T09:06:31.628Z,96708.57
2018-05-10T09:08:59.176Z,96712.30
2018-05-10T09:11:26.728Z,96715.16
2018-05-10T09:13:54.273Z,96711.63
2018-05-10T09:16:21.790Z,96726.33
2018-05-10T09:18:49.330Z,96724.83
2018-05-10T09:21:16.882Z,96741.05
2018-05-10T09:23:44.422Z,96729.02
2018-05-10T09:26:11.954Z,96738.57
2018-05-10T09:28:39.472Z,96729.22
2018-05-10T09:31:06.991Z,96726.64
2018-05-10T09:33:34.931Z,96717.98
2018-05-10T09:36:02.498Z,96731.98
2018-05-10T09:38:30.142Z,96730.49
2018-05-10T09:40:58.670Z,96736.80
2018-05-10T09:43:26.210Z,96739.80
2018-05-10T09:45:53.738Z,96736.91
2018-05-10T09:48:21.342Z,96744.42
2018-05-10T09:50:48.882Z,96737.46
2018-05-10T09:53:16.415Z,96744.29
2018-05-10T09:55:43.969Z,96738.34
2018-05-10T09:58:11.484Z,96745.81
2018-05-10T10:00:39.053Z,96743.07
2018-05-10T10:03:06.606Z,96742.98
2018-05-10T10:05:34.502Z,96756.70
2018-05-10T10:08:02.003Z,96744.31
2018-05-10T10:10:29.569Z,96745.08
2018-05-10T10:12:57.087Z,96735.36
2018-05-10T10:15:24.616Z,96746.02
2018-05-10T10:17:52.142Z,96761.21
2018-05-10T10:20:19.679Z,96758.38
2018-05-10T10:22:47.242Z,96754.42
2018-05-10T10:25:14.848Z,96755.63
2018-05-10T10:27:42.355Z,96758.41
2018-05-10T10:30:09.883Z,96742.27
2018-05-10T10:32:37.425Z,96755.28
2018-05-10T10:35:05.270Z,96758.12
2018-05-10T10:37:32.817Z,96753.42
2018-05-10T10:40:00.370Z,96767.84
2018-05-10T10:42:27.967Z,96766.58
2018-05-10T10:44:55.500Z,96771.24
2018-05-10T10:47:23.042Z,96784.07
2018-05-10T10:49:50.555Z,96780.91
2018-05-10T10:52:18.111Z,96782.13
2018-05-10T10:54:45.682Z,96798.38
2018-05-10T10:57:13.311Z,96797.39
2018-05-10T10:59:40.915Z,96804.94
2018-05-10T11:02:08.453Z,96818.69
2018-05-10T11:04:36.161Z,96818.27
2018-05-10T11:07:03.698Z,96788.67
2018-05-10T11:09:31.455Z,96815.94
2018-05-10T11:11:59.255Z,96821.30
2018-05-10T11:14:27.038Z,96837.17
2018-05-10T11:16:54.586Z,96833.92
2018-05-10T11:19:22.127Z,96839.84
2018-05-10T11:21:49.674Z,96836.67
2018-05-10T11:24:17.229Z,96845.36
2018-05-10T11:26:44.790Z,96541.22
2018-05-10T11:29:12.315Z,96832.71
2018-05-10T11:31:39.810Z,96831.17
2018-05-10T11:34:07.318Z,96833.28
2018-05-10T11:36:34.806Z,96848.73
2018-05-10T11:39:02.376Z,96845.87
2018-05-10T11:41:29.835Z,96846.32
2018-05-10T11:43:57.356Z,96846.15
2018-05-10T11:46:24.854Z,96839.88
2018-05-10T11:48:52.375Z,96849.15
2018-05-10T11:51:19.869Z,96846.13
2018-05-10T11:53:47.389Z,96844.45
2018-05-10T11:56:14.937Z,96847.94
2018-05-10T11:58:42.460Z,96838.72
2018-05-10T12:01:09.957Z,96850.08
2018-05-10T12:03:37.468Z,96848.91
2018-05-10T12:06:04.984Z,96844.20
2018-05-10T12:08:32.503Z,96848.90
2018-05-10T12:10:59.989Z,96852.28
2018-05-10T12:13:27.493Z,96855.36
2018-05-10T12:15:55.070Z,96857.48
2018-05-10T12:18:22.534Z,96861.72
2018-05-10T12:20:50.032Z,96862.34
2018-05-10T12:23:17.531Z,96835.23
2018-05-10T12:25:45.048Z,96860.14
2018-05-10T12:28:12.554Z,96872.45
2018-05-10T12:30:40.076Z,96874.02
2018-05-10T12:33:07.566Z,96881.45
2018-05-10T12:35:35.075Z,96885.35
2018-05-10T12:38:02.576Z,96881.66
2018-05-10T12:40:30.086Z,96887.62
2018-05-10T12:42:57.581Z,96885.95
2018-05-10T12:45:25.966Z,96897.30
2018-05-10T12:47:53.519Z,96889.33
2018-05-10T12:50:22.300Z,96902.59
2018-05-10T12:52:49.888Z,96906.52
2018-05-10T12:55:17.462Z,96903.45
2018-05-10T12:57:45.033Z,96909.25
2018-05-10T13:00:12.599Z,96920.22
2018-05-10T13:02:40.160Z,96912.34
2018-05-10T13:05:07.742Z,96918.34
2018-05-10T13:07:35.340Z,96918.86
2018-05-10T13:10:02.932Z,96926.73
2018-05-10T13:12:30.481Z,96935.40
2018-05-10T13:14:58.051Z,96933.34
2018-05-10T13:17:25.672Z,96948.69
2018-05-10T13:19:53.208Z,96956.27
2018-05-10T13:22:21.401Z,96953.25
2018-05-10T13:24:48.967Z,96959.63
2018-05-10T13:27:16.643Z,96956.00
2018-05-10T13:29:44.116Z,96947.02
2018-05-10T13:32:11.717Z,96955.80
2018-05-10T13:34:39.241Z,96965.34
2018-05-10T13:37:06.818Z,96958.20
2018-05-10T13:39:34.345Z,96965.73
2018-05-10T13:42:01.956Z,96963.12
2018-05-10T13:44:29.504Z,96971.44
2018-05-10T13:46:57.146Z,96973.27
2018-05-10T13:49:25.097Z,96973.30
2018-05-10T13:51:52.694Z,96978.91
2018-05-10T13:54:20.214Z,96981.98
2018-05-10T13:56:47.742Z,96993.66
2018-05-10T13:59:15.264Z,96995.31
2018-05-10T14:01:42.787Z,96990.44
2018-05-10T14:04:10.333Z,96995.05
2018-05-10T14:06:37.923Z,97004.77
2018-05-10T14:09:06.371Z,97008.34
2018-05-10T14:11:33.893Z,97005.58
2018-05-10T14:14:01.407Z,97014.19
2018-05-10T14:16:28.945Z,97015.17
2018-05-10T14:18:57.504Z,97019.84
2018-05-10T14:21:25.034Z,97022.46
2018-05-10T14:23:52.555Z,97023.36
2018-05-10T14:26:20.062Z,97037.52
2018-05-10T14:28:47.607Z,97032.94
2018-05-10T14:31:15.115Z,97040.27
2018-05-10T14:33:42.686Z,97039.80
2018-05-10T14:36:10.342Z,97043.98
2018-05-10T14:38:38.295Z,97057.38
2018-05-10T14:41:06.104Z,97052.88
2018-05-10T14:43:33.636Z,97066.17
2018-05-10T14:46:01.177Z,97062.23
2018-05-10T14:48:29.006Z,97055.50
2018-05-10T14:50:56.564Z,97059.68
2018-05-10T14:53:24.083Z,97057.19
2018-05-10T14:55:51.605Z,97059.98
2018-05-10T14:58:19.223Z,97050.91
2018-05-10T15:00:46.767Z,97060.89
2018-05-10T15:03:14.358Z,97071.72
2018-05-10T15:05:41.889Z,97054.44
2018-05-10T15:08:09.440Z,97055.44
2018-05-10T15:10:36.957Z,97062.58
2018-05-10T15:13:04.491Z,97068.85
2018-05-10T15:15:32.144Z,97065.05
2018-05-10T15:18:02.239Z,97074.41
2018-05-10T15:20:30.342Z,97067.00
2018-05-10T15:22:57.861Z,97052.50
2018-05-10T15:25:25.404Z,97069.95
2018-05-10T15:27:52.940Z,97072.64
2018-05-10T15:30:21.630Z,97065.86
2018-05-10T15:32:49.140Z,97067.08
2018-05-10T15:35:16.684Z,97070.07
2018-05-10T15:37:44.250Z,97067.23
2018-05-10T15:40:11.840Z,97068.61
2018-05-10T15:42:39.374Z,97076.19
2018-05-10T15:45:06.911Z,97083.55
2018-05-10T15:47:34.418Z,97083.01
2018-05-10T15:50:01.957Z,97079.40
2018-05-10T15:52:29.447Z,97077.11
2018-05-10T15:54:56.979Z,97079.77
2018-05-10T15:57:24.508Z,97078.02
2018-05-10T15:59:52.110Z,97081.16
2018-05-10T16:02:19.635Z,97079.70
2018-05-10T16:04:47.186Z,97089.47
2018-05-10T16:07:14.719Z,97085.80
2018-05-10T16:09:42.279Z,97091.99
2018-05-10T16:12:09.861Z,97096.25
2018-05-10T16:14:37.477Z,97091.70
2018-05-10T16:17:05.008Z,97092.25
2018-05-10T16:19:32.600Z,97093.69
2018-05-10T16:22:00.309Z,97094.50
2018-05-10T16:24:27.930Z,97097.69
2018-05-10T16:26:55.563Z,97095.30
2018-05-10T16:29:23.171Z,97093.78
2018-05-10T16:31:50.765Z,97095.50
2018-05-10T16:34:18.407Z,97097.87
2018-05-10T16:36:46.050Z,97105.64
2018-05-10T16:39:13.584Z,97110.61
2018-05-10T16:41:43.311Z,97109.77
2018-05-10T16:44:10.881Z,97117.58
2018-05-10T16:46:38.529Z,97122.33
2018-05-10T16:49:06.783Z,97122.42
2018-05-10T16:51:34.340Z,97123.16
2018-05-10T16:54:01.859Z,97126.55
2018-05-10T16:56:29.474Z,97120.11
2018-05-10T16:58:56.994Z,97129.72
2018-05-10T17:01:24.544Z,97134.35
2018-05-10T17:03:52.071Z,97138.62
2018-05-10T17:06:19.599Z,97137.30
2018-05-10T17:08:47.157Z,97145.14
2018-05-10T17:11:14.653Z,97143.44
2018-05-10T17:13:42.218Z,97147.98
2018-05-10T17:16:09.743Z,97160.23
2018-05-10T17:18:37.369Z,97153.77
2018-05-10T17:21:04.838Z,97164.69
2018-05-10T17:23:32.357Z,97168.34
2018-05-10T17:25:59.855Z,97169.02
2018-05-10T17:28:27.367Z,97173.59
2018-05-10T17:30:54.959Z,97178.17
2018-05-10T17:33:22.411Z,97187.32
2018-05-10T17:35:49.911Z,97190.00
2018-05-10T17:38:17.477Z,97194.58
2018-05-10T17:40:44.972Z,97199.12
2018-05-10T17:43:12.488Z,97201.08
2018-05-10T17:45:39.980Z,97204.80
2018-05-10T17:48:07.535Z,97212.83
2018-05-10T17:50:35.017Z,97223.47
2018-05-10T17:53:02.531Z,97224.48
2018-05-10T17:55:30.017Z,97221.34
2018-05-10T17:57:57.522Z,97234.53
2018-05-10T18:00:25.034Z,97240.84
2018-05-10T18:02:52.527Z,97241.68
2018-05-10T18:05:20.050Z,97257.45
2018-05-10T18:07:47.549Z,97270.71
2018-05-10T18:10:15.066Z,97281.98
2018-05-10T18:12:42.559Z,97290.06
2018-05-10T18:15:10.307Z,97290.67
2018-05-10T18:17:37.802Z,97301.68
2018-05-10T18:20:05.316Z,97305.23
2018-05-10T18:22:32.812Z,97311.96
2018-05-10T18:25:00.386Z,97322.38
2018-05-10T18:27:27.898Z,97336.03
2018-05-10T18:29:55.426Z,97342.20
2018-05-10T18:32:22.934Z,97357.64
2018-05-10T18:34:50.458Z,97364.27
2018-05-10T18:37:17.960Z,97375.27
2018-05-10T18:39:45.487Z,97380.66
2018-05-10T18:42:12.991Z,97394.41
2018-05-10T18:44:40.514Z,97400.27
2018-05-10T18:47:08.029Z,97409.77
2018-05-10T18:49:35.641Z,97406.64
2018-05-10T18:52:03.182Z,97412.02
2018-05-10T18:54:31.451Z,97417.27
2018-05-10T18:56:59.237Z,97429.75
2018-05-10T18:59:26.906Z,97433.80
2018-05-10T19:01:54.783Z,97437.73
2018-05-10T19:04:22.495Z,97444.47
2018-05-10T19:06:50.354Z,97458.14
2018-05-10T19:09:18.067Z,97549.94
2018-05-10T19:11:45.850Z,97470.38
2018-05-10T19:14:13.522Z,97482.34
2018-05-10T19:16:41.073Z,97495.64
2018-05-10T19:19:08.606Z,97502.86
2018-05-10T19:21:36.198Z,97505.22
2018-05-10T19:24:03.711Z,97515.33
2018-05-10T19:26:31.556Z,97518.10
2018-05-10T19:28:59.364Z,97521.42
2018-05-10T19:31:26.965Z,97532.81
2018-05-10T19:33:54.471Z,97545.75
2018-05-10T19:36:22.021Z,97546.58
2018-05-10T19:39:05.374Z,97551.24
2018-05-10T19:41:33.790Z,97548.47
2018-05-10T19:44:03.853Z,97551.03
2018-05-10T19:46:31.447Z,97565.88
2018-05-10T19:48:58.973Z,97580.72
2018-05-10T19:51:30.382Z,97582.73
2018-05-10T19:53:58.915Z,97587.08
2018-05-10T19:56:30.911Z,97601.27
2018-05-10T19:59:07.663Z,97602.82
2018-05-10T20:01:35.650Z,97610.33
2018-05-10T20:04:03.170Z,97609.57
2018-05-10T20:06:36.622Z,97620.06
2018-05-10T20:09:04.177Z,97619.12
2018-05-10T20:11:36.056Z,97632.33
2018-05-10T20:14:03.964Z,97637.59
2018-05-10T20:16:31.475Z,97637.23
2018-05-10T20:18:59.060Z,97625.36
2018-05-10T20:21:26.571Z,97653.30
2018-05-10T20:23:54.139Z,97650.95
2018-05-10T20:26:21.650Z,97650.46
2018-05-10T20:28:49.217Z,97654.80
2018-05-10T20:33:43.622Z,97667.08
2018-05-10T20:36:11.174Z,97658.77
2018-05-10T20:38:38.746Z,97658.56
2018-05-10T20:41:06.298Z,97662.27
2018-05-10T20:43:33.855Z,97673.03
2018-05-10T20:46:02.419Z,97669.69
2018-05-10T20:48:29.959Z,97668.42
2018-05-10T20:50:57.552Z,97677.08
2018-05-10T20:53:25.127Z,97676.50
2018-05-10T20:55:52.718Z,97677.80
2018-05-10T20:58:20.995Z,97691.50
2018-05-10T21:00:49.187Z,97692.93
2018-05-10T21:03:16.759Z,97694.76
2018-05-10T21:05:44.332Z,97700.16
2018-05-10T21:08:11.914Z,97698.48
2018-05-10T21:10:39.535Z,97707.08
2018-05-10T21:13:07.209Z,97708.59
2018-05-10T21:15:34.801Z,97704.27
2018-05-10T21:18:02.376Z,97719.36
2018-05-10T21:20:29.962Z,97723.50
2018-05-10T21:22:57.552Z,97730.82
2018-05-10T21:25:25.146Z,97733.00
2018-05-10T21:27:52.717Z,97736.50
2018-05-10T21:30:20.278Z,97731.96
2018-05-10T21:32:47.836Z,97738.66
2018-05-10T21:35:16.312Z,97737.92
2018-05-10T21:37:44.404Z,97743.08
2018-05-10T21:40:11.939Z,97747.97
2018-05-10T21:42:39.491Z,97752.52
2018-05-10T21:45:07.121Z,97749.42
2018-05-10T21:47:34.659Z,97762.18
2018-05-10T21:50:05.902Z,97759.08
2018-05-10T21:52:33.405Z,97757.82
2018-05-10T21:55:01.043Z,97757.98
2018-05-10T21:57:28.527Z,97761.45
2018-05-10T21:59:56.060Z,97760.54
2018-05-10T22:02:23.675Z,97763.82
2018-05-10T22:04:51.228Z,97762.97
2018-05-10T22:07:18.825Z,97769.60
2018-05-10T22:09:46.370Z,97774.15
2018-05-10T22:12:13.995Z,97766.73
2018-05-10T22:14:41.496Z,97770.23
2018-05-10T22:17:09.034Z,97771.55
2018-05-10T22:19:36.600Z,97775.84
2018-05-10T22:22:04.146Z,97776.54
2018-05-10T22:24:31.685Z,97778.00
2018-05-10T22:26:59.222Z,97779.70
2018-05-10T22:29:26.753Z,97781.84
2018-05-10T22:31:54.339Z,97779.11
2018-05-10T22:34:21.910Z,97773.20
2018-05-10T22:36:49.441Z,97781.31
2018-05-10T22:39:17.002Z,97781.34
2018-05-10T22:41:44.634Z,97782.95
2018-05-10T22:44:12.201Z,97784.06
2018-05-10T22:46:39.760Z,97780.78
2018-05-10T22:49:07.273Z,97782.77
2018-05-10T22:51:34.822Z,97779.16
2018-05-10T22:54:02.383Z,97787.52
2018-05-10T22:56:29.939Z,97782.47
2018-05-10T22:58:57.569Z,97778.58
2018-05-10T23:01:25.114Z,97776.53
2018-05-10T23:03:52.680Z,97774.61
2018-05-10T23:06:20.220Z,97774.88
2018-05-10T23:08:47.791Z,97774.36
2018-05-10T23:11:15.322Z,97778.40
2018-05-10T23:13:42.881Z,97779.12
2018-05-10T23:16:10.409Z,97774.50
2018-05-10T23:18:37.959Z,97775.05
2018-05-10T23:21:05.547Z,97772.75
2018-05-10T23:23:33.121Z,97780.29
2018-05-10T23:26:00.636Z,97772.27
2018-05-10T23:28:29.159Z,97770.83
2018-05-10T23:30:56.696Z,97774.80
2018-05-10T23:33:24.268Z,97770.98
2018-05-10T23:35:51.789Z,97774.45
2018-05-10T23:38:19.351Z,97774.08
2018-05-10T23:40:46.908Z,97775.78
2018-05-10T23:43:14.476Z,97771.73
2018-05-10T23:45:42.408Z,97774.30
2018-05-10T23:48:09.937Z,97779.55
2018-05-10T23:50:37.536Z,97778.10
2018-05-10T23:53:05.069Z,97781.00
2018-05-10T23:55:32.617Z,97785.94
2018-05-10T23:58:00.186Z,97788.95
